createdAt,value
2022-11-27T00:00:29.696Z,101009.31
2022-11-27T00:01:01.073Z,100995.38
2022-11-27T00:01:32.516Z,101002.75
2022-11-27T00:02:03.964Z,100999.72
2022-11-27T00:02:40.308Z,101000.28
2022-11-27T00:03:12.186Z,100991.53
2022-11-27T00:03:43.873Z,100994.81
2022-11-27T00:04:15.501Z,100991.53
2022-11-27T00:04:46.985Z,100992.91
2022-11-27T00:05:18.414Z,100990.44
2022-11-27T00:05:49.846Z,100987.72
2022-11-27T00:06:21.288Z,100995.91
2022-11-27T00:06:52.726Z,101001.66
2022-11-27T00:07:24.216Z,100988.81
2022-11-27T00:07:55.724Z,100990.16
2022-11-27T00:08:27.121Z,100990.16
2022-11-27T00:08:58.517Z,100994.25
2022-11-27T00:09:30.008Z,100989.06
2022-11-27T00:10:01.456Z,100985.25
2022-11-27T00:10:33.026Z,100988.25
2022-11-27T00:11:04.431Z,100993.44
2022-11-27T00:11:35.914Z,100989.63
2022-11-27T00:12:07.318Z,100982.25
2022-11-27T00:12:38.744Z,100992.34
2022-11-27T00:13:10.160Z,100987.16
2022-11-27T00:13:41.628Z,100989.34
2022-11-27T00:14:13.045Z,100991.25
2022-11-27T00:14:44.494Z,100983.06
2022-11-27T00:15:17.364Z,100983.34
2022-11-27T00:15:49.025Z,100994.00
2022-11-27T00:16:20.539Z,100994.81
2022-11-27T00:16:51.967Z,100996.19
2022-11-27T00:17:23.388Z,100990.72
2022-11-27T00:17:54.775Z,100986.34
2022-11-27T00:18:26.233Z,100982.53
2022-11-27T00:18:57.663Z,100989.91
2022-11-27T00:19:29.184Z,100986.06
2022-11-27T00:20:00.616Z,100978.69
2022-11-27T00:20:32.005Z,100984.97
2022-11-27T00:21:03.465Z,100974.03
2022-11-27T00:21:34.888Z,100975.69
2022-11-27T00:22:06.282Z,100969.66
2022-11-27T00:22:37.707Z,100972.94
2022-11-27T00:23:09.111Z,100975.97
2022-11-27T00:23:40.539Z,100973.50
2022-11-27T00:24:11.939Z,100975.41
2022-11-27T00:24:43.315Z,100972.41
2022-11-27T00:25:14.794Z,100970.50
2022-11-27T00:25:46.256Z,100972.13
2022-11-27T00:26:17.675Z,100972.41
2022-11-27T00:26:49.103Z,100971.59
2022-11-27T00:27:20.520Z,100972.97
2022-11-27T00:27:51.950Z,100969.41
2022-11-27T00:28:23.383Z,100971.03
2022-11-27T00:28:54.822Z,100974.06
2022-11-27T00:29:26.234Z,100965.03
2022-11-27T00:29:57.625Z,100968.59
2022-11-27T00:30:29.143Z,100970.50
2022-11-27T00:31:00.612Z,100968.03
2022-11-27T00:31:32.079Z,100964.75
2022-11-27T00:32:03.566Z,100966.94
2022-11-27T00:32:35.005Z,100966.94
2022-11-27T00:33:06.385Z,100970.78
2022-11-27T00:33:37.819Z,100959.03
2022-11-27T00:34:09.268Z,100964.47
2022-11-27T00:34:40.806Z,100975.16
2022-11-27T00:35:12.324Z,100966.66
2022-11-27T00:35:43.834Z,100972.69
2022-11-27T00:36:15.288Z,100969.69
2022-11-27T00:36:48.390Z,100966.66
2022-11-27T00:37:19.949Z,100969.13
2022-11-27T00:37:51.361Z,100966.13
2022-11-27T00:38:22.810Z,100958.47
2022-11-27T00:38:54.216Z,100963.13
2022-11-27T00:39:25.600Z,100964.47
2022-11-27T00:39:56.988Z,100959.03
2022-11-27T00:40:28.512Z,100969.41
2022-11-27T00:40:59.891Z,100961.47
2022-11-27T00:41:31.318Z,100963.38
2022-11-27T00:42:02.755Z,100956.84
2022-11-27T00:42:34.145Z,100962.03
2022-11-27T00:43:05.529Z,100955.19
2022-11-27T00:43:44.003Z,100958.47
2022-11-27T00:44:16.350Z,100954.91
2022-11-27T00:44:47.746Z,100957.66
2022-11-27T00:45:19.214Z,100960.94
2022-11-27T00:45:50.658Z,100952.47
2022-11-27T00:46:26.863Z,100961.75
2022-11-27T00:47:00.101Z,100958.47
2022-11-27T00:47:31.675Z,100957.66
2022-11-27T00:48:03.135Z,100958.19
2022-11-27T00:48:34.681Z,100952.47
2022-11-27T00:49:06.201Z,100958.75
2022-11-27T00:49:37.606Z,100955.75
2022-11-27T00:50:09.026Z,100955.19
2022-11-27T00:50:40.613Z,100953.56
2022-11-27T00:51:12.178Z,100954.91
2022-11-27T00:51:43.565Z,100954.66
2022-11-27T00:52:15.077Z,100956.84
2022-11-27T00:52:46.574Z,100950.28
2022-11-27T00:53:18.151Z,100954.91
2022-11-27T00:53:49.592Z,100960.38
2022-11-27T00:54:22.830Z,100962.03
2022-11-27T00:54:54.588Z,100958.75
2022-11-27T00:55:26.045Z,100954.09
2022-11-27T00:55:57.587Z,100963.66
2022-11-27T00:56:29.046Z,100958.19
2022-11-27T00:57:00.539Z,100959.84
2022-11-27T00:57:31.933Z,100956.28
2022-11-27T00:58:03.467Z,100956.84
2022-11-27T00:58:34.928Z,100961.22
2022-11-27T00:59:06.395Z,100960.13
2022-11-27T00:59:37.832Z,100954.09
2022-11-27T01:00:09.244Z,100952.19
2022-11-27T01:00:40.859Z,100952.72
2022-11-27T01:01:12.357Z,100951.09
2022-11-27T01:01:43.909Z,100947.00
2022-11-27T01:02:15.409Z,100949.72
2022-11-27T01:02:46.920Z,100940.72
2022-11-27T01:03:18.426Z,100942.34
2022-11-27T01:03:49.882Z,100935.25
2022-11-27T01:04:21.277Z,100941.81
2022-11-27T01:04:52.729Z,100940.97
2022-11-27T01:05:24.146Z,100934.13
2022-11-27T01:05:55.519Z,100936.59
2022-11-27T01:06:26.887Z,100934.97
2022-11-27T01:06:58.338Z,100936.34
2022-11-27T01:07:29.803Z,100940.97
2022-11-27T01:08:01.216Z,100937.69
2022-11-27T01:08:32.665Z,100940.44
2022-11-27T01:09:04.134Z,100937.94
2022-11-27T01:09:35.538Z,100941.75
2022-11-27T01:10:07.044Z,100941.47
2022-11-27T01:10:38.453Z,100945.03
2022-11-27T01:11:09.881Z,100941.75
2022-11-27T01:11:41.361Z,100947.47
2022-11-27T01:12:12.829Z,100944.22
2022-11-27T01:12:44.266Z,100943.94
2022-11-27T01:13:15.665Z,100944.22
2022-11-27T01:13:47.052Z,100947.22
2022-11-27T01:14:18.532Z,100938.47
2022-11-27T01:14:49.956Z,100934.38
2022-11-27T01:15:21.344Z,100934.66
2022-11-27T01:15:52.782Z,100940.38
2022-11-27T01:16:24.248Z,100939.28
2022-11-27T01:16:55.711Z,100939.84
2022-11-27T01:17:27.211Z,100943.94
2022-11-27T01:17:58.667Z,100943.13
2022-11-27T01:18:30.114Z,100944.22
2022-11-27T01:19:01.489Z,100940.66
2022-11-27T01:19:32.950Z,100940.66
2022-11-27T01:20:04.350Z,100945.28
2022-11-27T01:20:35.780Z,100945.03
2022-11-27T01:21:07.226Z,100946.41
2022-11-27T01:21:38.660Z,100940.94
2022-11-27T01:22:10.104Z,100944.75
2022-11-27T01:22:41.512Z,100954.03
2022-11-27T01:23:12.965Z,100954.31
2022-11-27T01:23:44.332Z,100946.94
2022-11-27T01:24:15.725Z,100950.75
2022-11-27T01:24:47.122Z,100957.03
2022-11-27T01:25:20.099Z,100956.50
2022-11-27T01:25:54.436Z,100954.31
2022-11-27T01:26:25.896Z,100951.56
2022-11-27T01:26:57.304Z,100957.84
2022-11-27T01:27:28.775Z,100960.84
2022-11-27T01:28:00.225Z,100956.50
2022-11-27T01:28:31.626Z,100957.88
2022-11-27T01:29:03.053Z,100956.50
2022-11-27T01:29:34.464Z,100952.13
2022-11-27T01:30:05.908Z,100955.69
2022-11-27T01:30:37.280Z,100955.13
2022-11-27T01:31:08.738Z,100959.50
2022-11-27T01:31:40.284Z,100961.41
2022-11-27T01:32:11.707Z,100955.94
2022-11-27T01:32:43.101Z,100952.13
2022-11-27T01:33:14.549Z,100959.22
2022-11-27T01:33:45.961Z,100958.13
2022-11-27T01:34:17.361Z,100954.84
2022-11-27T01:34:48.756Z,100955.13
2022-11-27T01:35:20.154Z,100951.84
2022-11-27T01:35:51.600Z,100948.84
2022-11-27T01:36:23.010Z,100954.03
2022-11-27T01:36:54.442Z,100949.41
2022-11-27T01:37:25.903Z,100959.22
2022-11-27T01:37:57.308Z,100951.03
2022-11-27T01:38:28.747Z,100949.13
2022-11-27T01:39:00.126Z,100947.75
2022-11-27T01:39:31.589Z,100941.19
2022-11-27T01:40:03.006Z,100947.47
2022-11-27T01:40:34.430Z,100944.75
2022-11-27T01:41:05.828Z,100940.38
2022-11-27T01:41:37.230Z,100939.00
2022-11-27T01:42:08.637Z,100941.47
2022-11-27T01:42:40.065Z,100936.28
2022-11-27T01:43:11.479Z,100933.00
2022-11-27T01:43:42.991Z,100937.38
2022-11-27T01:44:14.424Z,100940.09
2022-11-27T01:44:45.819Z,100928.09
2022-11-27T01:45:17.252Z,100932.19
2022-11-27T01:45:48.683Z,100934.66
2022-11-27T01:46:20.149Z,100934.66
2022-11-27T01:46:51.792Z,100934.09
2022-11-27T01:47:23.274Z,100935.47
2022-11-27T01:47:54.629Z,100931.63
2022-11-27T01:48:26.041Z,100935.19
2022-11-27T01:48:57.476Z,100930.81
2022-11-27T01:49:28.847Z,100929.44
2022-11-27T01:50:00.283Z,100934.38
2022-11-27T01:50:31.671Z,100925.34
2022-11-27T01:51:03.050Z,100927.28
2022-11-27T01:51:34.483Z,100928.63
2022-11-27T01:52:05.949Z,100929.19
2022-11-27T01:52:37.388Z,100926.19
2022-11-27T01:53:08.848Z,100919.91
2022-11-27T01:53:40.315Z,100926.44
2022-11-27T01:54:11.747Z,100927.81
2022-11-27T01:54:43.312Z,100922.34
2022-11-27T01:55:14.736Z,100920.16
2022-11-27T01:55:46.122Z,100925.09
2022-11-27T01:56:17.514Z,100926.72
2022-11-27T01:56:48.950Z,100922.06
2022-11-27T01:57:20.367Z,100926.19
2022-11-27T01:57:51.761Z,100927.00
2022-11-27T01:58:23.198Z,100923.16
2022-11-27T01:58:54.673Z,100923.72
2022-11-27T01:59:26.131Z,100921.81
2022-11-27T01:59:57.533Z,100931.91
2022-11-27T02:00:28.989Z,100926.44
2022-11-27T02:01:00.412Z,100933.28
2022-11-27T02:01:31.836Z,100930.81
2022-11-27T02:02:03.666Z,100933.28
2022-11-27T02:02:35.171Z,100928.63
2022-11-27T02:03:06.627Z,100929.72
2022-11-27T02:03:38.064Z,100933.00
2022-11-27T02:04:09.515Z,100924.53
2022-11-27T02:04:41.104Z,100931.63
2022-11-27T02:05:12.763Z,100933.53
2022-11-27T02:05:44.184Z,100929.16
2022-11-27T02:06:15.692Z,100927.25
2022-11-27T02:06:47.154Z,100928.34
2022-11-27T02:07:18.716Z,100926.72
2022-11-27T02:07:50.364Z,100930.53
2022-11-27T02:08:21.862Z,100928.63
2022-11-27T02:08:53.277Z,100926.97
2022-11-27T02:09:24.727Z,100931.34
2022-11-27T02:09:56.281Z,100927.53
2022-11-27T02:10:27.686Z,100929.16
2022-11-27T02:10:59.085Z,100933.53
2022-11-27T02:11:30.451Z,100925.34
2022-11-27T02:12:01.837Z,100928.63
2022-11-27T02:12:33.495Z,100930.00
2022-11-27T02:13:04.903Z,100923.44
2022-11-27T02:13:36.265Z,100923.16
2022-11-27T02:14:07.691Z,100924.00
2022-11-27T02:14:39.516Z,100919.88
2022-11-27T02:15:11.155Z,100917.69
2022-11-27T02:15:42.594Z,100922.06
2022-11-27T02:16:17.981Z,100914.69
2022-11-27T02:16:49.797Z,100923.16
2022-11-27T02:17:21.242Z,100924.53
2022-11-27T02:17:52.788Z,100922.88
2022-11-27T02:18:24.330Z,100917.69
2022-11-27T02:18:55.746Z,100917.16
2022-11-27T02:19:27.200Z,100915.78
2022-11-27T02:19:58.644Z,100919.63
2022-11-27T02:20:30.045Z,100917.69
2022-11-27T02:21:01.514Z,100914.44
2022-11-27T02:21:32.955Z,100912.78
2022-11-27T02:22:04.333Z,100914.97
2022-11-27T02:22:35.723Z,100908.97
2022-11-27T02:23:07.178Z,100909.50
2022-11-27T02:23:38.690Z,100906.78
2022-11-27T02:24:10.078Z,100909.78
2022-11-27T02:24:41.751Z,100907.59
2022-11-27T02:25:13.328Z,100905.16
2022-11-27T02:25:44.713Z,100904.31
2022-11-27T02:26:16.136Z,100900.22
2022-11-27T02:26:47.548Z,100898.03
2022-11-27T02:27:18.960Z,100898.84
2022-11-27T02:27:50.437Z,100896.94
2022-11-27T02:28:21.976Z,100897.22
2022-11-27T02:28:53.366Z,100892.84
2022-11-27T02:29:24.805Z,100890.13
2022-11-27T02:29:56.201Z,100894.50
2022-11-27T02:30:27.617Z,100894.50
2022-11-27T02:30:59.149Z,100894.75
2022-11-27T02:31:30.681Z,100890.13
2022-11-27T02:32:02.238Z,100887.13
2022-11-27T02:32:33.703Z,100889.31
2022-11-27T02:33:05.167Z,100887.94
2022-11-27T02:33:36.685Z,100889.31
2022-11-27T02:34:08.133Z,100892.31
2022-11-27T02:34:39.712Z,100880.56
2022-11-27T02:35:11.339Z,100885.75
2022-11-27T02:35:42.741Z,100883.84
2022-11-27T02:36:14.149Z,100891.47
2022-11-27T02:36:45.548Z,100877.84
2022-11-27T02:37:16.948Z,100883.84
2022-11-27T02:37:48.359Z,100882.19
2022-11-27T02:38:19.753Z,100883.28
2022-11-27T02:38:51.269Z,100881.94
2022-11-27T02:39:22.709Z,100877.28
2022-11-27T02:39:54.124Z,100872.38
2022-11-27T02:40:25.566Z,100880.56
2022-11-27T02:40:56.931Z,100877.00
2022-11-27T02:41:28.378Z,100873.19
2022-11-27T02:41:59.778Z,100875.09
2022-11-27T02:42:31.171Z,100877.84
2022-11-27T02:43:02.810Z,100872.38
2022-11-27T02:43:34.239Z,100868.56
2022-11-27T02:44:05.752Z,100871.28
2022-11-27T02:44:37.296Z,100880.56
2022-11-27T02:45:08.828Z,100875.09
2022-11-27T02:45:40.197Z,100878.66
2022-11-27T02:46:11.784Z,100880.56
2022-11-27T02:46:43.304Z,100872.91
2022-11-27T02:47:14.762Z,100881.13
2022-11-27T02:47:46.181Z,100865.81
2022-11-27T02:48:17.613Z,100878.09
2022-11-27T02:48:49.013Z,100878.38
2022-11-27T02:49:20.495Z,100883.28
2022-11-27T02:49:51.935Z,100884.38
2022-11-27T02:50:23.325Z,100880.56
2022-11-27T02:50:54.751Z,100882.19
2022-11-27T02:51:26.194Z,100879.47
2022-11-27T02:51:57.576Z,100887.13
2022-11-27T02:52:29.005Z,100878.91
2022-11-27T02:53:00.451Z,100874.00
2022-11-27T02:53:31.846Z,100882.75
2022-11-27T02:54:03.302Z,100879.47
2022-11-27T02:54:34.718Z,100879.47
2022-11-27T02:55:06.102Z,100881.13
2022-11-27T02:55:37.516Z,100880.84
2022-11-27T02:56:08.901Z,100875.94
2022-11-27T02:56:40.304Z,100881.66
2022-11-27T02:57:11.685Z,100874.84
2022-11-27T02:57:43.118Z,100872.63
2022-11-27T02:58:14.529Z,100869.09
2022-11-27T02:58:45.939Z,100870.47
2022-11-27T02:59:17.339Z,100870.47
2022-11-27T02:59:48.802Z,100864.19
2022-11-27T03:00:20.225Z,100860.34
2022-11-27T03:00:51.681Z,100861.19
2022-11-27T03:01:23.170Z,100865.53
2022-11-27T03:01:54.729Z,100861.72
2022-11-27T03:02:26.333Z,100858.44
2022-11-27T03:02:57.980Z,100852.16
2022-11-27T03:03:29.481Z,100848.34
2022-11-27T03:04:01.069Z,100845.59
2022-11-27T03:04:32.478Z,100846.44
2022-11-27T03:05:03.919Z,100845.88
2022-11-27T03:05:35.318Z,100852.97
2022-11-27T03:06:06.810Z,100843.16
2022-11-27T03:06:38.253Z,100839.88
2022-11-27T03:07:09.807Z,100840.44
2022-11-27T03:07:42.003Z,100840.97
2022-11-27T03:08:13.676Z,100835.50
2022-11-27T03:08:45.386Z,100839.06
2022-11-27T03:09:17.010Z,100842.34
2022-11-27T03:09:48.509Z,100842.88
2022-11-27T03:10:20.699Z,100839.06
2022-11-27T03:10:52.543Z,100840.97
2022-11-27T03:11:24.233Z,100836.31
2022-11-27T03:11:55.882Z,100830.59
2022-11-27T03:12:27.382Z,100839.06
2022-11-27T03:12:58.769Z,100830.88
2022-11-27T03:13:30.256Z,100833.31
2022-11-27T03:14:01.673Z,100829.78
2022-11-27T03:14:33.090Z,100837.97
2022-11-27T03:15:04.559Z,100825.41
2022-11-27T03:15:36.006Z,100828.97
2022-11-27T03:16:07.507Z,100818.31
2022-11-27T03:16:38.995Z,100827.59
2022-11-27T03:17:10.453Z,100830.88
2022-11-27T03:17:41.856Z,100824.59
2022-11-27T03:18:13.280Z,100820.22
2022-11-27T03:18:44.747Z,100820.50
2022-11-27T03:19:16.131Z,100822.94
2022-11-27T03:19:47.513Z,100822.94
2022-11-27T03:20:18.919Z,100813.94
2022-11-27T03:20:50.332Z,100821.84
2022-11-27T03:21:21.735Z,100815.56
2022-11-27T03:21:53.157Z,100823.22
2022-11-27T03:22:24.556Z,100813.38
2022-11-27T03:22:56.143Z,100814.22
2022-11-27T03:23:27.548Z,100809.56
2022-11-27T03:23:58.997Z,100813.66
2022-11-27T03:24:30.404Z,100820.50
2022-11-27T03:25:01.815Z,100809.31
2022-11-27T03:25:33.257Z,100809.31
2022-11-27T03:26:04.666Z,100807.13
2022-11-27T03:26:36.054Z,100810.94
2022-11-27T03:27:07.496Z,100808.19
2022-11-27T03:27:38.921Z,100806.28
2022-11-27T03:28:10.314Z,100806.56
2022-11-27T03:28:41.749Z,100810.38
2022-11-27T03:29:13.231Z,100805.19
2022-11-27T03:29:44.612Z,100809.31
2022-11-27T03:30:15.987Z,100797.56
2022-11-27T03:30:47.430Z,100799.75
2022-11-27T03:31:18.895Z,100802.75
2022-11-27T03:31:50.372Z,100801.09
2022-11-27T03:32:21.766Z,100804.94
2022-11-27T03:32:53.175Z,100800.28
2022-11-27T03:33:24.598Z,100807.94
2022-11-27T03:33:56.017Z,100795.38
2022-11-27T03:34:27.484Z,100795.91
2022-11-27T03:34:58.962Z,100804.09
2022-11-27T03:35:30.308Z,100800.28
2022-11-27T03:36:01.793Z,100794.00
2022-11-27T03:36:33.192Z,100794.56
2022-11-27T03:37:04.603Z,100797.00
2022-11-27T03:37:36.042Z,100796.47
2022-11-27T03:38:07.460Z,100792.91
2022-11-27T03:38:38.870Z,100800.84
2022-11-27T03:39:10.252Z,100801.38
2022-11-27T03:39:41.750Z,100789.94
2022-11-27T03:40:13.121Z,100794.81
2022-11-27T03:40:44.536Z,100793.19
2022-11-27T03:41:16.010Z,100797.81
2022-11-27T03:41:47.395Z,100798.38
2022-11-27T03:42:18.775Z,100798.09
2022-11-27T03:42:50.195Z,100801.38
2022-11-27T03:43:21.633Z,100800.56
2022-11-27T03:43:53.079Z,100801.09
2022-11-27T03:44:24.509Z,100800.84
2022-11-27T03:44:55.987Z,100800.28
2022-11-27T03:45:27.432Z,100798.38
2022-11-27T03:45:58.841Z,100796.75
2022-11-27T03:46:30.338Z,100805.19
2022-11-27T03:47:01.746Z,100799.19
2022-11-27T03:47:33.220Z,100799.75
2022-11-27T03:48:04.694Z,100799.75
2022-11-27T03:48:36.128Z,100803.84
2022-11-27T03:49:07.510Z,100802.19
2022-11-27T03:49:38.901Z,100803.03
2022-11-27T03:50:10.334Z,100803.84
2022-11-27T03:50:41.737Z,100796.47
2022-11-27T03:51:13.133Z,100799.47
2022-11-27T03:51:44.596Z,100805.47
2022-11-27T03:52:16.001Z,100793.47
2022-11-27T03:52:47.437Z,100801.09
2022-11-27T03:53:18.864Z,100803.03
2022-11-27T03:53:50.240Z,100797.56
2022-11-27T03:54:21.689Z,100793.72
2022-11-27T03:54:53.145Z,100798.09
2022-11-27T03:55:24.639Z,100794.28
2022-11-27T03:55:56.047Z,100795.91
2022-11-27T03:56:27.443Z,100796.75
2022-11-27T03:56:58.844Z,100791.56
2022-11-27T03:57:30.309Z,100793.19
2022-11-27T03:58:01.685Z,100802.47
2022-11-27T03:58:33.148Z,100786.09
2022-11-27T03:59:04.512Z,100790.19
2022-11-27T03:59:35.965Z,100783.91
2022-11-27T04:00:07.349Z,100784.44
2022-11-27T04:00:38.805Z,100796.47
2022-11-27T04:01:10.241Z,100784.72
2022-11-27T04:01:41.721Z,100791.00
2022-11-27T04:02:13.243Z,100794.00
2022-11-27T04:02:44.698Z,100791.81
2022-11-27T04:03:16.145Z,100792.09
2022-11-27T04:03:47.589Z,100792.09
2022-11-27T04:04:19.066Z,100797.81
2022-11-27T04:04:50.508Z,100788.53
2022-11-27T04:05:21.891Z,100794.28
2022-11-27T04:05:53.385Z,100796.19
2022-11-27T04:06:24.793Z,100800.56
2022-11-27T04:06:56.225Z,100793.47
2022-11-27T04:07:27.695Z,100802.78
2022-11-27T04:07:59.165Z,100807.66
2022-11-27T04:08:30.616Z,100794.81
2022-11-27T04:09:01.976Z,100804.38
2022-11-27T04:09:33.397Z,100798.91
2022-11-27T04:10:04.820Z,100789.13
2022-11-27T04:10:36.258Z,100798.13
2022-11-27T04:11:07.761Z,100789.94
2022-11-27T04:11:39.159Z,100794.59
2022-11-27T04:12:10.592Z,100794.03
2022-11-27T04:12:41.972Z,100796.50
2022-11-27T04:13:13.355Z,100788.81
2022-11-27T04:13:44.736Z,100791.84
2022-11-27T04:14:16.134Z,100792.38
2022-11-27T04:14:47.497Z,100797.31
2022-11-27T04:15:18.936Z,100796.50
2022-11-27T04:15:50.494Z,100804.69
2022-11-27T04:16:22.038Z,100798.69
2022-11-27T04:16:53.539Z,100798.69
2022-11-27T04:17:24.970Z,100794.84
2022-11-27T04:17:56.368Z,100806.59
2022-11-27T04:18:27.852Z,100807.41
2022-11-27T04:18:59.286Z,100795.41
2022-11-27T04:19:30.659Z,100801.69
2022-11-27T04:20:02.056Z,100809.59
2022-11-27T04:20:33.513Z,100796.22
2022-11-27T04:21:04.961Z,100795.94
2022-11-27T04:21:36.402Z,100801.41
2022-11-27T04:22:07.803Z,100799.78
2022-11-27T04:22:39.216Z,100793.22
2022-11-27T04:23:10.639Z,100787.75
2022-11-27T04:23:42.078Z,100795.69
2022-11-27T04:24:13.468Z,100792.66
2022-11-27T04:24:44.868Z,100798.38
2022-11-27T04:25:16.318Z,100800.56
2022-11-27T04:25:47.704Z,100795.91
2022-11-27T04:26:19.090Z,100795.09
2022-11-27T04:26:50.633Z,100794.81
2022-11-27T04:27:22.067Z,100795.69
2022-11-27T04:27:53.499Z,100786.13
2022-11-27T04:28:24.896Z,100791.03
2022-11-27T04:28:56.297Z,100785.28
2022-11-27T04:29:27.694Z,100788.00
2022-11-27T04:29:59.124Z,100788.00
2022-11-27T04:30:30.531Z,100789.13
2022-11-27T04:31:01.977Z,100796.78
2022-11-27T04:31:33.511Z,100793.72
2022-11-27T04:32:05.019Z,100791.00
2022-11-27T04:32:36.429Z,100792.38
2022-11-27T04:33:07.873Z,100792.38
2022-11-27T04:33:39.245Z,100798.66
2022-11-27T04:34:10.639Z,100789.38
2022-11-27T04:34:42.360Z,100797.00
2022-11-27T04:35:13.880Z,100790.47
2022-11-27T04:35:45.283Z,100788.81
2022-11-27T04:36:16.711Z,100790.72
2022-11-27T04:36:48.221Z,100789.38
2022-11-27T04:37:19.675Z,100793.75
2022-11-27T04:37:51.102Z,100792.13
2022-11-27T04:38:22.516Z,100786.09
2022-11-27T04:38:53.936Z,100785.81
2022-11-27T04:39:25.346Z,100794.56
2022-11-27T04:39:56.758Z,100791.28
2022-11-27T04:40:28.196Z,100789.94
2022-11-27T04:40:59.623Z,100783.34
2022-11-27T04:41:31.044Z,100786.63
2022-11-27T04:42:02.611Z,100785.81
2022-11-27T04:42:34.065Z,100786.91
2022-11-27T04:43:05.460Z,100774.06
2022-11-27T04:43:36.834Z,100784.72
2022-11-27T04:44:08.289Z,100786.63
2022-11-27T04:44:39.937Z,100774.91
2022-11-27T04:45:11.490Z,100777.09
2022-11-27T04:45:42.885Z,100780.63
2022-11-27T04:46:14.338Z,100783.09
2022-11-27T04:46:45.901Z,100780.94
2022-11-27T04:47:17.383Z,100780.13
2022-11-27T04:47:48.907Z,100782.31
2022-11-27T04:48:20.308Z,100778.72
2022-11-27T04:48:51.748Z,100782.00
2022-11-27T04:49:23.152Z,100781.19
2022-11-27T04:49:54.561Z,100774.06
2022-11-27T04:50:25.928Z,100781.19
2022-11-27T04:50:57.336Z,100775.16
2022-11-27T04:51:28.731Z,100775.72
2022-11-27T04:52:00.165Z,100777.91
2022-11-27T04:52:31.582Z,100764.50
2022-11-27T04:53:03.282Z,100776.25
2022-11-27T04:53:34.709Z,100762.88
2022-11-27T04:54:06.114Z,100760.97
2022-11-27T04:54:37.704Z,100767.53
2022-11-27T04:55:09.303Z,100761.50
2022-11-27T04:55:40.701Z,100758.78
2022-11-27T04:56:12.118Z,100766.16
2022-11-27T04:56:43.597Z,100759.91
2022-11-27T04:57:14.994Z,100761.81
2022-11-27T04:57:46.454Z,100765.38
2022-11-27T04:58:17.955Z,100767.78
2022-11-27T04:58:49.396Z,100756.88
2022-11-27T04:59:20.789Z,100756.59
2022-11-27T04:59:52.180Z,100758.78
2022-11-27T05:00:23.560Z,100760.97
2022-11-27T05:00:55.039Z,100763.97
2022-11-27T05:01:26.526Z,100763.44
2022-11-27T05:01:57.994Z,100757.97
2022-11-27T05:02:29.433Z,100762.59
2022-11-27T05:03:01.020Z,100757.19
2022-11-27T05:03:32.564Z,100756.63
2022-11-27T05:04:03.973Z,100760.19
2022-11-27T05:04:35.446Z,100764.56
2022-11-27T05:05:06.885Z,100759.34
2022-11-27T05:05:38.345Z,100757.69
2022-11-27T05:06:09.774Z,100759.88
2022-11-27T05:06:41.192Z,100750.59
2022-11-27T05:07:12.697Z,100747.31
2022-11-27T05:07:44.237Z,100755.78
2022-11-27T05:08:15.712Z,100745.97
2022-11-27T05:08:47.142Z,100749.50
2022-11-27T05:09:18.530Z,100750.09
2022-11-27T05:09:49.954Z,100745.72
2022-11-27T05:10:21.337Z,100747.91
2022-11-27T05:10:52.807Z,100750.63
2022-11-27T05:11:24.212Z,100753.31
2022-11-27T05:11:55.609Z,100747.88
2022-11-27T05:12:27.035Z,100751.41
2022-11-27T05:12:58.471Z,100745.97
2022-11-27T05:13:29.859Z,100744.63
2022-11-27T05:14:01.375Z,100741.34
2022-11-27T05:14:32.798Z,100732.34
2022-11-27T05:15:04.785Z,100742.44
2022-11-27T05:15:36.390Z,100737.53
2022-11-27T05:16:07.892Z,100730.16
2022-11-27T05:16:39.321Z,100738.84
2022-11-27T05:17:10.794Z,100735.06
2022-11-27T05:17:42.192Z,100734.78
2022-11-27T05:18:13.602Z,100734.78
2022-11-27T05:18:45.005Z,100729.06
2022-11-27T05:19:16.431Z,100729.34
2022-11-27T05:19:47.837Z,100718.13
2022-11-27T05:20:19.267Z,100724.69
2022-11-27T05:20:50.735Z,100735.34
2022-11-27T05:21:22.200Z,100727.44
2022-11-27T05:21:53.665Z,100714.59
2022-11-27T05:22:25.097Z,100714.88
2022-11-27T05:22:56.509Z,100712.13
2022-11-27T05:23:27.909Z,100720.56
2022-11-27T05:23:59.354Z,100709.09
2022-11-27T05:24:30.802Z,100717.56
2022-11-27T05:25:02.311Z,100716.19
2022-11-27T05:25:33.699Z,100718.97
2022-11-27T05:26:05.403Z,100717.00
2022-11-27T05:26:36.933Z,100722.78
2022-11-27T05:27:08.340Z,100718.66
2022-11-27T05:27:39.775Z,100715.69
2022-11-27T05:28:11.303Z,100714.88
2022-11-27T05:28:42.697Z,100715.41
2022-11-27T05:29:14.112Z,100714.00
2022-11-27T05:29:45.537Z,100711.00
2022-11-27T05:30:17.035Z,100708.81
2022-11-27T05:30:48.515Z,100712.69
2022-11-27T05:31:20.178Z,100710.78
2022-11-27T05:31:51.665Z,100697.91
2022-11-27T05:32:23.112Z,100702.59
2022-11-27T05:32:54.546Z,100705.31
2022-11-27T05:33:25.952Z,100699.03
2022-11-27T05:33:57.451Z,100696.31
2022-11-27T05:34:28.833Z,100696.84
2022-11-27T05:35:00.299Z,100700.13
2022-11-27T05:35:31.697Z,100695.47
2022-11-27T05:36:03.158Z,100698.22
2022-11-27T05:36:34.554Z,100696.84
2022-11-27T05:37:05.975Z,100693.56
2022-11-27T05:37:37.421Z,100696.56
2022-11-27T05:38:08.860Z,100697.13
2022-11-27T05:38:40.258Z,100694.91
2022-11-27T05:39:11.684Z,100691.06
2022-11-27T05:39:43.100Z,100696.00
2022-11-27T05:40:14.599Z,100690.53
2022-11-27T05:40:46.012Z,100696.31
2022-11-27T05:41:17.422Z,100695.47
2022-11-27T05:41:48.862Z,100691.66
2022-11-27T05:42:20.243Z,100697.41
2022-11-27T05:42:51.671Z,100688.38
2022-11-27T05:43:23.098Z,100684.84
2022-11-27T05:43:54.489Z,100687.28
2022-11-27T05:44:25.853Z,100685.94
2022-11-27T05:44:58.601Z,100686.22
2022-11-27T05:45:30.210Z,100685.66
2022-11-27T05:46:01.614Z,100686.75
2022-11-27T05:46:33.195Z,100687.84
2022-11-27T05:47:04.795Z,100684.84
2022-11-27T05:47:36.297Z,100679.38
2022-11-27T05:48:07.693Z,100684.03
2022-11-27T05:48:39.094Z,100677.75
2022-11-27T05:49:10.538Z,100684.56
2022-11-27T05:49:41.989Z,100683.75
2022-11-27T05:50:13.383Z,100672.00
2022-11-27T05:50:44.791Z,100671.72
2022-11-27T05:51:16.252Z,100673.38
2022-11-27T05:51:51.306Z,100663.53
2022-11-27T05:52:23.231Z,100664.34
2022-11-27T05:52:54.603Z,100660.81
2022-11-27T05:53:26.085Z,100664.09
2022-11-27T05:53:57.487Z,100662.19
2022-11-27T05:54:28.886Z,100659.16
2022-11-27T05:55:00.292Z,100661.09
2022-11-27T05:55:31.738Z,100661.38
2022-11-27T05:56:03.198Z,100665.72
2022-11-27T05:56:34.608Z,100666.53
2022-11-27T05:57:06.076Z,100665.44
2022-11-27T05:57:37.665Z,100661.91
2022-11-27T05:58:09.085Z,100672.00
2022-11-27T05:58:40.473Z,100674.72
2022-11-27T05:59:11.844Z,100672.81
2022-11-27T05:59:43.279Z,100674.72